createdAt,value
2023-12-24T00:00:30.920Z,2.60
2023-12-24T00:03:22.730Z,2.40
2023-12-24T00:05:58.243Z,1.20
2023-12-24T00:08:30.822Z,4.30
2023-12-24T00:11:02.500Z,4.40
2023-12-24T00:13:34.854Z,2.70
2023-12-24T00:16:07.155Z,2.40
2023-12-24T00:18:39.078Z,2.50
2023-12-24T00:21:13.744Z,3.00
2023-12-24T00:23:46.652Z,3.00
2023-12-24T00:26:18.500Z,1.80
2023-12-24T00:28:52.218Z,1.50
2023-12-24T00:31:24.055Z,3.20
2023-12-24T00:33:55.769Z,2.10
2023-12-24T00:36:27.427Z,2.70
2023-12-24T00:38:59.061Z,2.30
2023-12-24T00:41:31.587Z,3.60
2023-12-24T00:44:03.520Z,3.30
2023-12-24T00:46:35.310Z,2.20
2023-12-24T00:49:06.944Z,2.50
2023-12-24T00:51:42.300Z,3.30
2023-12-24T00:54:14.100Z,2.00
2023-12-24T00:56:45.643Z,6.30
2023-12-24T00:59:17.232Z,3.10
2023-12-24T01:01:48.964Z,2.20
2023-12-24T01:04:20.609Z,6.00
2023-12-24T01:06:52.264Z,3.60
2023-12-24T01:09:23.866Z,3.80
2023-12-24T01:11:55.850Z,2.60
2023-12-24T01:14:27.499Z,3.70
2023-12-24T01:16:59.239Z,2.30
2023-12-24T01:19:32.163Z,2.80
2023-12-24T01:22:03.918Z,2.10
2023-12-24T01:24:35.757Z,3.60
2023-12-24T01:27:08.240Z,2.60
2023-12-24T01:29:39.876Z,2.40
2023-12-24T01:32:11.845Z,3.90
2023-12-24T01:34:43.544Z,3.00
2023-12-24T01:37:15.180Z,4.70
2023-12-24T01:39:46.767Z,3.80
2023-12-24T01:42:18.442Z,2.30
2023-12-24T01:44:50.016Z,2.00
2023-12-24T01:47:21.836Z,2.50
2023-12-24T01:49:54.249Z,3.30
2023-12-24T01:52:27.104Z,2.40
2023-12-24T01:54:59.304Z,2.70
2023-12-24T01:57:32.028Z,2.00
2023-12-24T02:00:04.015Z,5.90
2023-12-24T02:02:35.984Z,2.50
2023-12-24T02:05:08.542Z,2.20
2023-12-24T02:07:41.553Z,5.10
2023-12-24T02:10:13.562Z,4.10
2023-12-24T02:12:45.825Z,4.00
2023-12-24T02:15:17.795Z,2.20
2023-12-24T02:17:50.133Z,2.20
2023-12-24T02:20:27.200Z,4.30
2023-12-24T02:25:31.040Z,3.60
2023-12-24T02:28:08.753Z,3.70
2023-12-24T02:30:47.052Z,2.10
2023-12-24T02:33:20.716Z,1.50
2023-12-24T02:35:53.494Z,2.20
2023-12-24T02:38:25.994Z,1.30
2023-12-24T02:40:57.560Z,1.30
2023-12-24T02:43:29.735Z,1.10
2023-12-24T02:46:01.446Z,2.40
2023-12-24T02:48:33.161Z,2.10
2023-12-24T02:51:05.260Z,0.80
2023-12-24T02:53:37.115Z,0.80
2023-12-24T02:56:09.025Z,2.10
2023-12-24T02:58:40.621Z,1.80
2023-12-24T03:01:12.302Z,2.60
2023-12-24T03:03:43.967Z,1.20
2023-12-24T03:06:16.044Z,1.10
2023-12-24T03:08:47.759Z,0.90
2023-12-24T03:11:19.457Z,1.70
2023-12-24T03:13:51.076Z,1.80
2023-12-24T03:16:22.644Z,1.40
2023-12-24T03:18:54.610Z,1.20
2023-12-24T03:21:26.287Z,7.00
2023-12-24T03:23:57.960Z,0.80
2023-12-24T03:26:30.356Z,0.90
2023-12-24T03:29:02.594Z,0.80
2023-12-24T03:31:34.295Z,0.50
2023-12-24T03:34:05.982Z,1.20
2023-12-24T03:36:37.694Z,0.70
2023-12-24T03:39:10.433Z,1.00
2023-12-24T03:41:42.227Z,1.00
2023-12-24T03:44:13.973Z,0.30
2023-12-24T03:46:45.606Z,1.10
2023-12-24T03:49:17.423Z,1.40
2023-12-24T03:51:49.665Z,0.80
2023-12-24T03:54:23.126Z,0.50
2023-12-24T03:56:55.793Z,1.60
2023-12-24T03:59:30.092Z,1.50
2023-12-24T04:02:03.378Z,0.90
2023-12-24T04:04:35.149Z,0.30
2023-12-24T04:07:06.989Z,0.20
2023-12-24T04:09:39.879Z,0.90
2023-12-24T04:12:11.849Z,1.10
2023-12-24T04:14:43.679Z,1.50
2023-12-24T04:17:15.330Z,0.90
2023-12-24T04:19:47.073Z,0.70
2023-12-24T04:22:18.730Z,0.50
2023-12-24T04:24:50.373Z,0.60
2023-12-24T04:27:21.951Z,0.40
2023-12-24T04:29:53.588Z,2.70
2023-12-24T04:32:25.275Z,0.20
2023-12-24T04:34:56.975Z,0.40
2023-12-24T04:37:28.594Z,0.20
2023-12-24T04:40:00.204Z,0.40
2023-12-24T04:42:32.042Z,0.50
2023-12-24T04:45:04.083Z,0.20
2023-12-24T04:47:35.753Z,1.10
2023-12-24T04:50:09.000Z,0.40
2023-12-24T04:52:40.707Z,0.50
2023-12-24T04:55:12.694Z,1.10
2023-12-24T04:57:44.282Z,1.50
2023-12-24T05:00:17.631Z,0.40
2023-12-24T05:02:50.347Z,0.60
2023-12-24T05:05:22.898Z,0.40
2023-12-24T05:07:54.592Z,0.80
2023-12-24T05:10:26.183Z,0.30
2023-12-24T05:12:57.769Z,1.10
2023-12-24T05:15:29.765Z,0.90
2023-12-24T05:18:01.486Z,1.00
2023-12-24T05:20:33.113Z,0.40
2023-12-24T05:23:04.836Z,0.60
2023-12-24T05:25:36.533Z,0.70
2023-12-24T05:28:08.572Z,0.40
2023-12-24T05:30:40.195Z,0.50
2023-12-24T05:33:12.173Z,0.80
2023-12-24T05:35:43.999Z,1.20
2023-12-24T05:38:15.745Z,0.30
2023-12-24T05:40:47.709Z,0.30
2023-12-24T05:43:19.241Z,1.30
2023-12-24T05:45:51.219Z,0.30
2023-12-24T05:48:22.890Z,1.40
2023-12-24T05:50:54.609Z,1.50
2023-12-24T05:53:26.290Z,3.30
2023-12-24T05:55:57.950Z,0.30
2023-12-24T05:58:29.564Z,0.80
2023-12-24T06:01:01.273Z,1.20
2023-12-24T06:03:32.851Z,0.80
2023-12-24T06:06:04.768Z,0.50
2023-12-24T06:08:36.546Z,1.00
2023-12-24T06:11:08.343Z,3.00
2023-12-24T06:13:39.891Z,1.90
2023-12-24T06:16:13.222Z,0.90
2023-12-24T06:18:45.780Z,1.60
2023-12-24T06:21:18.776Z,0.30
2023-12-24T06:23:51.705Z,0.60
2023-12-24T06:26:23.391Z,0.30
2023-12-24T06:28:55.023Z,1.50
2023-12-24T06:31:26.624Z,1.90
2023-12-24T06:33:58.238Z,2.40
2023-12-24T06:36:29.976Z,1.50
2023-12-24T06:39:01.535Z,0.90
2023-12-24T06:41:33.252Z,0.90
2023-12-24T06:44:04.884Z,2.80
2023-12-24T06:46:36.478Z,2.80
2023-12-24T06:49:08.122Z,2.50
2023-12-24T06:51:39.749Z,2.30
2023-12-24T06:54:11.391Z,1.90
2023-12-24T06:56:44.448Z,1.80
2023-12-24T06:59:16.084Z,1.90
2023-12-24T07:01:47.686Z,2.00
2023-12-24T07:04:19.224Z,1.60
2023-12-24T07:06:51.029Z,1.60
2023-12-24T07:09:22.618Z,2.10
2023-12-24T07:11:54.186Z,0.50
2023-12-24T07:14:25.874Z,0.70
2023-12-24T07:16:57.596Z,0.60
2023-12-24T07:19:29.473Z,0.50
2023-12-24T07:22:01.148Z,0.40
2023-12-24T07:24:32.792Z,1.00
2023-12-24T07:27:04.483Z,0.70
2023-12-24T07:29:36.139Z,0.80
2023-12-24T07:32:09.087Z,1.50
2023-12-24T07:34:40.880Z,2.80
2023-12-24T07:37:15.011Z,1.60
2023-12-24T07:39:46.734Z,2.10
2023-12-24T07:42:18.415Z,4.30
2023-12-24T07:44:50.075Z,0.60
2023-12-24T07:47:21.678Z,1.10
2023-12-24T07:49:53.313Z,0.60
2023-12-24T07:52:25.016Z,0.60
2023-12-24T07:54:56.652Z,1.20
2023-12-24T07:57:28.310Z,1.10
2023-12-24T07:59:59.915Z,0.80
2023-12-24T08:02:31.746Z,0.80
2023-12-24T08:05:03.493Z,1.60
2023-12-24T08:07:35.192Z,1.50
2023-12-24T08:10:08.628Z,2.10
2023-12-24T08:12:40.296Z,1.70
2023-12-24T08:15:12.400Z,4.30
2023-12-24T08:17:44.303Z,3.40
2023-12-24T08:20:16.862Z,4.90
2023-12-24T08:22:48.489Z,3.70
2023-12-24T08:25:20.248Z,5.60
2023-12-24T08:27:52.702Z,4.50
2023-12-24T08:30:24.730Z,3.10
2023-12-24T08:32:56.891Z,1.90
2023-12-24T08:35:28.913Z,2.00
2023-12-24T08:38:00.575Z,1.20
2023-12-24T08:40:32.201Z,4.10
2023-12-24T08:43:03.850Z,2.30
2023-12-24T08:45:35.455Z,5.70
2023-12-24T08:48:09.285Z,3.30
2023-12-24T08:50:40.994Z,1.60
2023-12-24T08:53:12.800Z,1.40
2023-12-24T08:55:44.365Z,0.80
2023-12-24T08:58:16.332Z,1.20
2023-12-24T09:00:47.889Z,1.00
2023-12-24T09:03:21.742Z,0.80
2023-12-24T09:05:53.619Z,1.90
2023-12-24T09:08:26.170Z,2.90
2023-12-24T09:10:57.857Z,2.20
2023-12-24T09:13:29.456Z,3.60
2023-12-24T09:16:01.051Z,1.70
2023-12-24T09:18:32.897Z,1.50
2023-12-24T09:21:04.719Z,3.50
2023-12-24T09:23:36.397Z,1.80
2023-12-24T09:26:08.260Z,2.00
2023-12-24T09:28:39.964Z,1.20
2023-12-24T09:31:11.465Z,1.10
2023-12-24T09:33:43.222Z,4.10
2023-12-24T09:36:15.095Z,3.50
2023-12-24T09:38:46.726Z,4.10
2023-12-24T09:41:21.298Z,3.60
2023-12-24T09:43:52.933Z,2.10
2023-12-24T09:46:24.625Z,1.10
2023-12-24T09:48:56.237Z,1.00
2023-12-24T09:51:28.690Z,2.20
2023-12-24T09:54:00.795Z,1.20
2023-12-24T09:56:32.524Z,0.50
2023-12-24T09:59:07.551Z,0.40
2023-12-24T10:01:47.860Z,0.40
2023-12-24T10:04:19.590Z,1.20
2023-12-24T10:06:58.750Z,0.70
2023-12-24T10:09:46.254Z,1.00
2023-12-24T10:12:17.897Z,1.50
2023-12-24T10:14:59.236Z,1.10
2023-12-24T10:17:35.497Z,2.90
2023-12-24T10:20:10.756Z,0.30
2023-12-24T10:22:43.261Z,0.50
2023-12-24T10:25:18.739Z,0.90
2023-12-24T10:27:50.676Z,1.30
2023-12-24T10:30:22.891Z,3.30
2023-12-24T10:33:08.472Z,0.90
2023-12-24T10:35:40.451Z,0.70
2023-12-24T10:38:17.649Z,2.70
2023-12-24T10:43:19.627Z,1.20
2023-12-24T10:45:51.513Z,1.10
2023-12-24T10:48:23.659Z,0.80
2023-12-24T10:50:56.051Z,0.70
2023-12-24T10:53:27.997Z,3.10
2023-12-24T10:56:05.378Z,2.50
2023-12-24T10:58:46.977Z,1.40
2023-12-24T11:01:19.421Z,1.20
2023-12-24T11:03:54.107Z,2.00
2023-12-24T11:06:49.427Z,1.50
2023-12-24T11:09:46.315Z,1.30
2023-12-24T11:12:35.495Z,3.00
2023-12-24T11:15:11.478Z,3.70
2023-12-24T11:17:53.015Z,3.10
2023-12-24T11:20:42.225Z,2.20
2023-12-24T11:23:15.325Z,13.50
2023-12-24T11:25:48.246Z,18.20
2023-12-24T11:28:39.284Z,7.10
2023-12-24T11:31:11.203Z,3.30
2023-12-24T11:33:50.767Z,2.50
2023-12-24T11:36:23.259Z,6.00
2023-12-24T11:39:01.659Z,4.50
2023-12-24T11:41:33.512Z,13.50
2023-12-24T11:44:05.712Z,19.90
2023-12-24T11:46:39.547Z,10.90
2023-12-24T11:49:19.855Z,4.80
2023-12-24T11:51:51.829Z,3.30
2023-12-24T11:54:24.438Z,3.60
2023-12-24T11:56:57.700Z,6.80
2023-12-24T11:59:29.886Z,2.70
2023-12-24T12:02:07.972Z,1.50
2023-12-24T12:04:39.734Z,2.40
2023-12-24T12:07:11.400Z,5.30
2023-12-24T12:09:43.299Z,9.40
2023-12-24T12:12:15.096Z,9.60
2023-12-24T12:14:46.919Z,3.30
2023-12-24T12:17:18.617Z,5.20
2023-12-24T12:19:51.012Z,2.10
2023-12-24T12:22:22.664Z,3.40
2023-12-24T12:24:54.316Z,3.60
2023-12-24T12:27:26.398Z,2.40
2023-12-24T12:29:58.156Z,2.20
2023-12-24T12:32:30.217Z,1.60
2023-12-24T12:35:02.020Z,1.90
2023-12-24T12:37:34.987Z,0.90
2023-12-24T12:40:07.887Z,1.00
2023-12-24T12:42:43.459Z,0.90
2023-12-24T12:45:16.344Z,1.20
2023-12-24T12:47:48.131Z,6.60
2023-12-24T12:50:19.943Z,3.90
2023-12-24T12:52:55.856Z,2.40
2023-12-24T12:55:27.603Z,3.60
2023-12-24T12:57:59.350Z,3.80
2023-12-24T13:00:31.675Z,1.80
2023-12-24T13:03:09.882Z,3.20
2023-12-24T13:05:42.095Z,1.50
2023-12-24T13:08:18.287Z,1.60
2023-12-24T13:10:50.269Z,1.70
2023-12-24T13:13:23.657Z,2.00
2023-12-24T13:16:09.116Z,3.30
2023-12-24T13:18:41.416Z,2.20
2023-12-24T13:21:13.109Z,1.20
2023-12-24T13:23:45.721Z,3.90
2023-12-24T13:26:17.315Z,3.90
2023-12-24T13:28:48.911Z,3.00
2023-12-24T13:31:25.771Z,7.50
2023-12-24T13:33:57.442Z,2.70
2023-12-24T13:36:29.048Z,2.10
2023-12-24T13:39:00.826Z,2.70
2023-12-24T13:41:35.329Z,1.80
2023-12-24T13:44:07.805Z,3.20
2023-12-24T13:46:40.403Z,2.30
2023-12-24T13:49:11.999Z,2.10
2023-12-24T13:51:43.702Z,1.70
2023-12-24T13:54:15.338Z,2.00
2023-12-24T13:56:47.095Z,1.80
2023-12-24T13:59:18.770Z,1.90
2023-12-24T14:01:50.425Z,1.10
2023-12-24T14:04:22.118Z,1.20
2023-12-24T14:06:53.709Z,1.10
2023-12-24T14:09:26.107Z,1.80
2023-12-24T14:11:57.955Z,3.00
2023-12-24T14:14:29.513Z,2.80
2023-12-24T14:17:01.217Z,2.60
2023-12-24T14:19:32.755Z,4.00
2023-12-24T14:22:04.541Z,3.30
2023-12-24T14:24:36.094Z,3.10
2023-12-24T14:27:08.259Z,2.70
2023-12-24T14:29:41.192Z,2.30
2023-12-24T14:32:13.323Z,3.10
2023-12-24T14:34:44.863Z,4.60
2023-12-24T14:37:16.478Z,6.40
2023-12-24T14:39:48.117Z,3.00
2023-12-24T14:42:19.741Z,1.50
2023-12-24T14:44:52.246Z,2.40
2023-12-24T14:47:25.994Z,1.80
2023-12-24T14:49:58.798Z,1.30
2023-12-24T14:52:31.127Z,2.00
2023-12-24T14:55:03.779Z,1.90
2023-12-24T14:57:36.910Z,4.40
2023-12-24T15:00:10.985Z,2.40
2023-12-24T15:02:43.238Z,2.40
2023-12-24T15:05:15.178Z,3.10
2023-12-24T15:07:47.367Z,2.00
2023-12-24T15:10:19.258Z,1.80
2023-12-24T15:12:51.823Z,3.70
2023-12-24T15:15:23.987Z,3.00
2023-12-24T15:17:55.860Z,4.30
2023-12-24T15:20:27.775Z,1.50
2023-12-24T15:22:59.586Z,1.00
2023-12-24T15:25:31.353Z,1.10
2023-12-24T15:28:03.442Z,1.10
2023-12-24T15:30:35.854Z,1.10
2023-12-24T15:33:08.475Z,0.90
2023-12-24T15:35:42.446Z,2.20
2023-12-24T15:38:14.553Z,2.40
2023-12-24T15:40:46.303Z,2.60
2023-12-24T15:43:18.298Z,1.60
2023-12-24T15:45:50.146Z,1.10
2023-12-24T15:48:22.615Z,1.70
2023-12-24T15:50:54.538Z,2.70
2023-12-24T15:53:26.557Z,2.50
2023-12-24T15:55:58.667Z,1.80
2023-12-24T15:58:31.027Z,2.00
2023-12-24T16:01:04.746Z,2.10
2023-12-24T16:03:36.839Z,2.40
2023-12-24T16:06:09.987Z,2.70
2023-12-24T16:08:42.219Z,1.60
2023-12-24T16:11:14.204Z,1.90
2023-12-24T16:13:46.060Z,2.90
2023-12-24T16:16:17.788Z,1.20
2023-12-24T16:18:50.286Z,3.00
2023-12-24T16:21:22.361Z,2.80
2023-12-24T16:23:54.291Z,2.20
2023-12-24T16:26:25.967Z,2.70
2023-12-24T16:28:57.859Z,1.50
2023-12-24T16:31:29.834Z,1.60
2023-12-24T16:34:02.149Z,1.60
2023-12-24T16:36:34.126Z,1.60
2023-12-24T16:39:06.894Z,0.70
2023-12-24T16:41:42.118Z,1.40
2023-12-24T16:44:16.696Z,0.80
2023-12-24T16:46:48.600Z,1.20
2023-12-24T16:49:20.481Z,1.10
2023-12-24T16:51:53.600Z,2.40
2023-12-24T16:54:25.988Z,2.00
2023-12-24T16:56:57.775Z,1.80
2023-12-24T16:59:29.523Z,2.10
2023-12-24T17:02:01.464Z,1.10
2023-12-24T17:04:33.279Z,1.60
2023-12-24T17:07:05.297Z,1.60
2023-12-24T17:09:39.069Z,1.00
2023-12-24T17:12:10.952Z,1.10
2023-12-24T17:14:44.316Z,0.70
2023-12-24T17:17:16.402Z,1.10
2023-12-24T17:19:48.312Z,2.10
2023-12-24T17:22:20.000Z,0.50
2023-12-24T17:24:52.051Z,1.20
2023-12-24T17:27:23.736Z,2.40
2023-12-24T17:29:55.698Z,2.10
2023-12-24T17:32:27.754Z,2.30
2023-12-24T17:35:00.205Z,1.90
2023-12-24T17:37:32.125Z,1.10
2023-12-24T17:40:04.093Z,1.00
2023-12-24T17:42:36.082Z,0.80
2023-12-24T17:45:09.690Z,1.10
2023-12-24T17:47:41.732Z,1.30
2023-12-24T17:50:13.878Z,1.00
2023-12-24T17:52:45.707Z,0.70
2023-12-24T17:55:17.813Z,1.20
2023-12-24T17:57:49.434Z,1.10
2023-12-24T18:00:21.863Z,1.40
2023-12-24T18:02:53.927Z,1.20
2023-12-24T18:05:26.026Z,1.80
2023-12-24T18:07:57.901Z,1.30
2023-12-24T18:10:29.888Z,1.10
2023-12-24T18:13:01.712Z,1.00
2023-12-24T18:15:33.518Z,3.10
2023-12-24T18:18:05.739Z,2.10
2023-12-24T18:20:37.857Z,1.20
2023-12-24T18:23:11.190Z,1.40
2023-12-24T18:25:43.016Z,1.00
2023-12-24T18:28:15.907Z,1.00
2023-12-24T18:30:47.808Z,1.10
2023-12-24T18:33:20.380Z,2.80
2023-12-24T18:35:52.956Z,1.40
2023-12-24T18:38:24.749Z,0.80
2023-12-24T18:40:56.597Z,1.10
2023-12-24T18:43:28.478Z,0.90
2023-12-24T18:46:00.750Z,4.80
2023-12-24T18:48:32.745Z,2.20
2023-12-24T18:51:06.588Z,0.80
2023-12-24T18:53:38.242Z,1.10
2023-12-24T18:56:11.007Z,1.60
2023-12-24T18:58:43.196Z,1.20
2023-12-24T19:01:15.032Z,0.90
2023-12-24T19:03:46.877Z,1.60
2023-12-24T19:06:26.110Z,1.10
2023-12-24T19:08:59.629Z,1.20
2023-12-24T19:11:31.723Z,2.30
2023-12-24T19:14:04.387Z,0.70
2023-12-24T19:16:36.051Z,0.90
2023-12-24T19:19:08.090Z,3.30
2023-12-24T19:21:40.033Z,1.40
2023-12-24T19:24:11.772Z,2.20
2023-12-24T19:26:44.131Z,1.00
2023-12-24T19:29:15.789Z,1.90
2023-12-24T19:31:47.427Z,1.90
2023-12-24T19:34:19.272Z,2.40
2023-12-24T19:36:51.038Z,0.70
2023-12-24T19:39:22.706Z,1.10
2023-12-24T19:41:54.503Z,0.70
2023-12-24T19:44:26.323Z,1.40
2023-12-24T19:46:58.022Z,0.70
2023-12-24T19:49:30.086Z,1.00
2023-12-24T19:52:01.790Z,0.90
2023-12-24T19:54:33.362Z,0.80
2023-12-24T19:57:05.434Z,1.80
2023-12-24T19:59:37.061Z,1.00
2023-12-24T20:02:08.690Z,0.90
2023-12-24T20:04:41.558Z,1.60
2023-12-24T20:07:13.296Z,1.50
2023-12-24T20:09:44.853Z,1.30
2023-12-24T20:12:16.777Z,1.00
2023-12-24T20:14:48.544Z,0.70
2023-12-24T20:17:20.637Z,2.00
2023-12-24T20:19:52.263Z,1.20
2023-12-24T20:22:25.780Z,1.30
2023-12-24T20:24:58.513Z,0.90
2023-12-24T20:27:30.211Z,1.50
2023-12-24T20:30:01.884Z,1.20
2023-12-24T20:32:33.832Z,2.80
2023-12-24T20:35:05.924Z,1.20
2023-12-24T20:37:37.554Z,0.90
2023-12-24T20:40:11.128Z,1.60
2023-12-24T20:42:42.867Z,1.00
2023-12-24T20:45:14.751Z,1.30
2023-12-24T20:47:46.576Z,1.40
2023-12-24T20:50:18.600Z,1.40
2023-12-24T20:52:50.567Z,1.10
2023-12-24T20:55:22.596Z,1.10
2023-12-24T20:57:54.473Z,0.70
2023-12-24T21:00:26.371Z,1.30
2023-12-24T21:02:58.616Z,1.10
2023-12-24T21:05:30.796Z,1.90
2023-12-24T21:08:02.747Z,2.20
2023-12-24T21:10:34.549Z,1.30
2023-12-24T21:13:06.697Z,1.50
2023-12-24T21:15:38.445Z,1.90
2023-12-24T21:18:10.379Z,1.30
2023-12-24T21:20:42.271Z,1.30
2023-12-24T21:23:14.219Z,1.80
2023-12-24T21:25:46.084Z,2.00
2023-12-24T21:28:17.779Z,1.30
2023-12-24T21:30:49.657Z,1.40
2023-12-24T21:33:21.472Z,0.70
2023-12-24T21:35:53.655Z,0.80
2023-12-24T21:38:25.489Z,1.60
2023-12-24T21:40:57.661Z,1.00
2023-12-24T21:43:29.369Z,0.70
2023-12-24T21:46:03.990Z,2.10
2023-12-24T21:48:36.304Z,1.30
2023-12-24T21:51:08.303Z,1.20
2023-12-24T21:53:40.495Z,1.90
2023-12-24T21:56:12.525Z,0.50
2023-12-24T21:58:44.543Z,1.60
2023-12-24T22:01:26.228Z,0.80
2023-12-24T22:04:01.313Z,0.60
2023-12-24T22:06:33.182Z,1.40
2023-12-24T22:09:05.385Z,1.50
2023-12-24T22:11:37.167Z,1.20
2023-12-24T22:14:08.952Z,0.60
2023-12-24T22:16:40.678Z,0.60
2023-12-24T22:19:12.644Z,0.40
2023-12-24T22:21:49.423Z,0.70
2023-12-24T22:24:23.948Z,0.70
2023-12-24T22:26:56.423Z,1.20
2023-12-24T22:29:28.256Z,0.90
2023-12-24T22:31:59.844Z,0.50
2023-12-24T22:34:31.836Z,0.50
2023-12-24T22:37:03.657Z,0.90
2023-12-24T22:39:35.216Z,0.30
2023-12-24T22:42:07.149Z,0.40
2023-12-24T22:44:39.756Z,0.40
2023-12-24T22:47:11.357Z,0.90
2023-12-24T22:49:43.025Z,0.40
2023-12-24T22:52:14.675Z,0.60
2023-12-24T22:54:46.461Z,1.00
2023-12-24T22:57:18.246Z,0.30
2023-12-24T22:59:49.930Z,0.20
2023-12-24T23:02:21.638Z,0.40
2023-12-24T23:04:53.339Z,3.80
2023-12-24T23:07:25.014Z,0.20
2023-12-24T23:09:58.026Z,1.10
2023-12-24T23:12:29.682Z,3.50
2023-12-24T23:15:01.334Z,0.30
2023-12-24T23:17:33.225Z,0.60
2023-12-24T23:20:05.144Z,0.60
2023-12-24T23:22:36.809Z,0.50
2023-12-24T23:25:09.315Z,1.30
2023-12-24T23:27:40.926Z,0.40
2023-12-24T23:30:14.012Z,1.40
2023-12-24T23:32:45.663Z,0.50
2023-12-24T23:35:17.547Z,1.60
2023-12-24T23:37:49.228Z,0.30
2023-12-24T23:40:20.893Z,0.40
2023-12-24T23:42:52.473Z,0.30
2023-12-24T23:45:24.064Z,0.30
2023-12-24T23:47:55.820Z,0.30
2023-12-24T23:50:27.649Z,4.60
2023-12-24T23:52:59.283Z,0.40
2023-12-24T23:55:30.869Z,0.70
2023-12-24T23:58:02.519Z,0.30
